Time;durP1;ratioP1;P1;durP2;ratioP2;P2;SDS_P1;SDS_P2;PMS_P1;PMS_P2;Temp;Humidity;BMP_temperature;BMP_pressure;BME280_temperature;BME280_humidity;BME280_pressure;Samples;Min_cycle;Max_cycle;Signal;HPM_P1;HPM_P2
2023/01/10 00:00:00;;;;;;;;;;;;;;;4.78;90.60;99360.88;5093620;28;19912;-41
2023/01/10 00:02:25;;;;;;;;;;;;;;;4.58;89.30;99363.13;5093790;28;19969;-42
2023/01/10 00:04:51;;;;;;;;;;;;;;;4.74;89.09;99356.94;5093635;28;20402;-41
2023/01/10 00:07:16;;;;;;;;;;;;;;;4.64;88.78;99359.78;5093374;28;19916;-41
2023/01/10 00:09:41;;;;;;;;;;;;;;;4.74;89.34;99353.47;5093653;28;20373;-41
2023/01/10 00:14:51;;;;;;;;;;;;;;;4.64;88.08;99343.97;5093408;28;19922;-43
2023/01/10 00:17:17;;;;;;;;;;;;;;;4.41;88.76;99340.50;5093454;28;19912;-43
2023/01/10 00:19:42;;;;;;;;;;;;;;;4.48;90.41;99336.19;5092927;28;19957;-42
2023/01/10 00:22:08;;;;;;;;;;;;;;;4.40;89.36;99323.03;5093137;28;19927;-42
2023/01/10 00:24:33;;;;;;;;;;;;;;;4.47;90.04;99329.25;5092966;28;20067;-42
2023/01/10 00:26:59;;;;;;;;;;;;;;;4.38;90.94;99317.13;5093168;28;20299;-41
2023/01/10 00:29:28;;;;;;;;;;;;;;;4.44;91.80;99313.81;5093021;28;20008;-42
2023/01/10 00:31:53;;;;;;;;;;;;;;;4.74;89.72;99304.22;5093196;28;20031;-42
2023/01/10 00:34:19;;;;;;;;;;;;;;;4.66;88.13;99304.28;5092927;28;19955;-42
2023/01/10 00:36:46;;;;;;;;;;;;;;;4.49;88.97;99301.75;5093019;28;19912;-42
2023/01/10 00:39:11;;;;;;;;;;;;;;;4.40;90.28;99299.31;5092971;28;19919;-42
2023/01/10 00:44:21;;;;;;;;;;;;;;;4.27;90.36;99305.19;5092760;28;19974;-42
2023/01/10 00:46:46;;;;;;;;;;;;;;;4.29;90.00;99290.84;5092659;28;20325;-42
2023/01/10 00:49:14;;;;;;;;;;;;;;;4.43;90.52;99288.44;5091790;28;19916;-43
2023/01/10 00:51:40;;;;;;;;;;;;;;;4.62;89.30;99301.16;5091532;28;20251;-42
2023/01/10 00:54:05;;;;;;;;;;;;;;;4.45;89.08;99308.34;5092590;28;20348;-42
2023/01/10 00:56:30;;;;;;;;;;;;;;;4.61;88.37;99286.34;5092822;28;20018;-42
2023/01/10 00:58:56;;;;;;;;;;;;;;;4.50;88.47;99292.03;5092906;28;19912;-42
2023/01/10 01:01:21;;;;;;;;;;;;;;;4.40;88.47;99289.63;5092564;28;19916;-42
2023/01/10 01:03:46;;;;;;;;;;;;;;;4.45;88.29;99291.72;5092742;28;20053;-42
2023/01/10 01:06:12;;;;;;;;;;;;;;;4.53;88.86;99289.03;5093009;28;19920;-42
2023/01/10 01:08:37;;;;;;;;;;;;;;;4.45;89.43;99282.00;5093117;28;19913;-42
2023/01/10 01:11:02;;;;;;;;;;;;;;;4.56;89.92;99290.50;5092946;28;19934;-42
2023/01/10 01:13:27;;;;;;;;;;;;;;;4.53;88.58;99283.75;5092994;28;19912;-42
2023/01/10 01:15:56;;;;;;;;;;;;;;;4.61;88.01;99277.63;5092715;28;19912;-42
2023/01/10 01:18:21;;;;;;;;;;;;;;;4.50;88.16;99282.31;5092856;28;20437;-41
2023/01/10 01:20:47;;;;;;;;;;;;;;;4.58;88.80;99288.53;5092592;28;19920;-42
2023/01/10 01:23:13;;;;;;;;;;;;;;;4.61;88.96;99277.63;5092564;28;19916;-42
2023/01/10 01:25:38;;;;;;;;;;;;;;;4.51;89.15;99272.56;5092679;28;20022;-41
2023/01/10 01:28:03;;;;;;;;;;;;;;;4.60;89.63;99284.69;5092565;28;20391;-42
2023/01/10 01:30:29;;;;;;;;;;;;;;;4.57;89.29;99277.16;5092481;28;20021;-42
2023/01/10 01:32:54;;;;;;;;;;;;;;;4.54;90.27;99281.97;5092330;28;19916;-43
2023/01/10 01:35:19;;;;;;;;;;;;;;;4.74;89.26;99283.13;5092536;28;19961;-41
2023/01/10 01:37:44;;;;;;;;;;;;;;;4.73;89.12;99275.41;5092719;28;20379;-41
2023/01/10 01:40:13;;;;;;;;;;;;;;;4.68;89.23;99276.75;5092467;28;20013;-42
2023/01/10 01:42:39;;;;;;;;;;;;;;;4.92;88.53;99260.91;5091804;28;19912;-42
2023/01/10 01:45:07;;;;;;;;;;;;;;;4.74;88.82;99253.31;5091418;28;19912;-42
2023/01/10 01:47:51;;;;;;;;;;;;;;;4.82;89.39;99254.06;5091817;28;19919;-43
2023/01/10 01:50:31;;;;;;;;;;;;;;;4.95;88.54;99227.09;5091977;28;19912;-42
2023/01/10 01:52:57;;;;;;;;;;;;;;;4.93;88.31;99228.25;5091620;28;19919;-42
2023/01/10 01:55:24;;;;;;;;;;;;;;;4.66;89.75;99227.81;5091486;28;19937;-42
2023/01/10 01:57:51;;;;;;;;;;;;;;;4.95;89.39;99231.53;5091842;28;19939;-42
2023/01/10 02:00:16;;;;;;;;;;;;;;;4.77;89.04;99235.31;5092070;28;20387;-42
2023/01/10 02:02:45;;;;;;;;;;;;;;;4.80;87.81;99228.88;5075347;28;20011;-42
2023/01/10 02:05:13;;;;;;;;;;;;;;;4.84;89.94;99211.72;5081590;28;20345;-42
2023/01/10 02:07:40;;;;;;;;;;;;;;;4.87;89.44;99212.16;5071756;28;19938;-42
2023/01/10 02:10:25;;;;;;;;;;;;;;;4.94;90.41;99208.81;5071080;28;20368;-42
2023/01/10 02:12:52;;;;;;;;;;;;;;;5.09;87.79;99186.72;5071616;28;20339;-42
2023/01/10 02:15:18;;;;;;;;;;;;;;;5.02;89.01;99177.88;5071272;28;20425;-42
2023/01/10 02:17:46;;;;;;;;;;;;;;;5.07;89.34;99180.00;5071499;28;20043;-42
2023/01/10 02:20:12;;;;;;;;;;;;;;;4.92;88.60;99190.53;5071439;28;19920;-42
2023/01/10 02:22:56;;;;;;;;;;;;;;;4.60;91.91;99187.19;5071397;28;20266;-42
2023/01/10 02:25:24;;;;;;;;;;;;;;;4.66;92.07;99177.75;5071094;28;19912;-42
2023/01/10 02:28:07;;;;;;;;;;;;;;;4.78;90.59;99165.78;5071385;28;20007;-42
2023/01/10 02:30:35;;;;;;;;;;;;;;;4.75;88.88;99158.22;5071088;28;20065;-42
2023/01/10 02:33:21;;;;;;;;;;;;;;;4.81;88.90;99140.88;5071266;28;19912;-42
2023/01/10 02:36:05;;;;;;;;;;;;;;;4.68;89.21;99120.41;5059447;28;19999;-41
2023/01/10 02:38:46;;;;;;;;;;;;;;;4.82;88.49;99139.88;5073531;28;19984;-42
2023/01/10 02:41:14;;;;;;;;;;;;;;;4.58;87.75;99156.75;5091285;28;19951;-42
2023/01/10 02:43:47;;;;;;;;;;;;;;;4.51;88.78;99159.25;5091201;28;19913;-44
2023/01/10 02:46:26;;;;;;;;;;;;;;;4.42;89.57;99165.63;5091250;28;19920;-42
2023/01/10 02:48:52;;;;;;;;;;;;;;;4.52;89.24;99166.19;5090048;28;20304;-41
2023/01/10 02:51:19;;;;;;;;;;;;;;;4.46;89.67;99167.72;5091132;28;19991;-42
2023/01/10 02:53:48;;;;;;;;;;;;;;;4.56;89.31;99164.03;5091213;28;19912;-42
2023/01/10 02:56:16;;;;;;;;;;;;;;;4.52;89.73;99166.19;5091198;28;19919;-42
2023/01/10 02:58:44;;;;;;;;;;;;;;;4.48;90.26;99157.00;5091173;28;20042;-42
2023/01/10 03:01:19;;;;;;;;;;;;;;;4.46;89.72;99156.38;5091118;28;19916;-42
2023/01/10 03:04:04;;;;;;;;;;;;;;;4.58;89.51;99152.28;5088321;28;20555;-43
2023/01/10 03:07:05;;;;;;;;;;;;;;;4.49;90.91;99148.09;5070317;28;19939;-42
2023/01/10 03:09:33;;;;;;;;;;;;;;;4.39;90.82;99155.44;5028546;28;20040;-42
2023/01/10 03:12:08;;;;;;;;;;;;;;;4.48;90.21;99147.28;5063960;28;19998;-42
2023/01/10 03:14:36;;;;;;;;;;;;;;;4.38;90.37;99154.63;5075043;28;19913;-42
2023/01/10 03:17:03;;;;;;;;;;;;;;;4.46;90.52;99151.09;5074982;28;20376;-42
2023/01/10 03:19:32;;;;;;;;;;;;;;;4.59;91.27;99146.03;5075124;28;19947;-43
2023/01/10 03:22:00;;;;;;;;;;;;;;;4.55;90.52;99128.94;5088798;28;20383;-43
2023/01/10 03:24:29;;;;;;;;;;;;;;;4.58;90.69;99133.03;5094993;28;19912;-43
2023/01/10 03:27:04;;;;;;;;;;;;;;;4.60;90.67;99131.03;5094941;28;19935;-43
2023/01/10 03:29:40;;;;;;;;;;;;;;;4.64;91.07;99138.38;5095073;28;19951;-43
2023/01/10 03:32:08;;;;;;;;;;;;;;;4.53;91.60;99143.28;5089376;28;19917;-43
2023/01/10 03:34:34;;;;;;;;;;;;;;;4.53;91.97;99136.19;5104986;27;19970;-43
2023/01/10 03:37:12;;;;;;;;;;;;;;;4.57;92.10;99121.69;5088108;28;19912;-43
2023/01/10 03:39:45;;;;;;;;;;;;;;;4.52;91.94;99104.78;5091803;28;19974;-43
2023/01/10 03:42:15;;;;;;;;;;;;;;;4.52;91.94;99094.22;5081789;28;20010;-43
2023/01/10 03:45:00;;;;;;;;;;;;;;;4.70;91.68;99107.84;5074270;28;19912;-43
2023/01/10 03:47:31;;;;;;;;;;;;;;;4.67;92.10;99114.31;5073829;28;19986;-43
2023/01/10 03:49:59;;;;;;;;;;;;;;;4.68;93.41;99115.97;5074422;28;19913;-43
2023/01/10 03:52:25;;;;;;;;;;;;;;;4.64;92.79;99117.31;5074630;28;19939;-41
2023/01/10 03:54:50;;;;;;;;;;;;;;;4.78;91.27;99101.69;5074331;28;20371;-42
2023/01/10 03:57:22;;;;;;;;;;;;;;;4.86;91.38;99088.44;5074207;28;20352;-42
2023/01/10 03:59:50;;;;;;;;;;;;;;;4.73;91.95;99080.34;5074213;28;19966;-42
2023/01/10 04:02:16;;;;;;;;;;;;;;;4.78;90.08;99068.25;5074064;28;19918;-42
2023/01/10 04:04:41;;;;;;;;;;;;;;;4.94;90.38;99054.03;5097914;28;19922;-42
2023/01/10 04:07:06;;;;;;;;;;;;;;;5.05;89.59;99045.66;5112817;28;19915;-42
2023/01/10 04:09:32;;;;;;;;;;;;;;;4.88;91.28;99045.03;5094083;28;19962;-42
2023/01/10 04:11:57;;;;;;;;;;;;;;;4.97;90.20;99037.88;5094443;28;20213;-42
2023/01/10 04:14:22;;;;;;;;;;;;;;;4.97;89.65;99050.22;5093997;28;19923;-42
2023/01/10 04:16:47;;;;;;;;;;;;;;;5.05;89.11;99064.13;5094149;28;20015;-42
2023/01/10 04:19:13;;;;;;;;;;;;;;;4.78;89.69;99072.69;5092705;28;19943;-41
2023/01/10 04:21:38;;;;;;;;;;;;;;;4.83;90.46;99080.88;5088578;28;19947;-41
2023/01/10 04:24:03;;;;;;;;;;;;;;;4.72;91.27;99078.69;5093727;28;19912;-40
2023/01/10 04:26:29;;;;;;;;;;;;;;;4.84;90.77;99072.78;5094137;28;19926;-41
2023/01/10 04:28:54;;;;;;;;;;;;;;;4.89;90.15;99080.13;5094293;28;19919;-42
2023/01/10 04:31:21;;;;;;;;;;;;;;;4.72;89.97;99068.13;5093392;28;19912;-42
2023/01/10 04:33:46;;;;;;;;;;;;;;;4.66;90.96;99059.97;5093605;28;19923;-42
2023/01/10 04:36:11;;;;;;;;;;;;;;;4.72;91.59;99060.22;5093227;28;20267;-42
2023/01/10 04:38:37;;;;;;;;;;;;;;;4.86;91.61;99056.78;5093403;28;20405;-42
2023/01/10 04:41:02;;;;;;;;;;;;;;;5.00;90.81;99063.03;5093439;28;20006;-42
2023/01/10 04:43:27;;;;;;;;;;;;;;;4.89;90.24;99059.88;5093339;28;20379;-42
2023/01/10 04:45:52;;;;;;;;;;;;;;;4.98;90.08;99065.03;5092812;28;19919;-41
2023/01/10 04:48:18;;;;;;;;;;;;;;;4.91;90.09;99070.22;5091050;28;19922;-41
2023/01/10 04:50:53;;;;;;;;;;;;;;;4.86;89.93;99070.78;5092201;28;19912;-42
2023/01/10 04:53:18;;;;;;;;;;;;;;;4.79;90.17;99071.69;5092085;28;19912;-42
2023/01/10 04:55:44;;;;;;;;;;;;;;;4.84;90.12;99058.78;5091762;28;19994;-42
2023/01/10 04:58:09;;;;;;;;;;;;;;;4.75;91.01;99054.59;5091635;28;19912;-42
2023/01/10 05:00:34;;;;;;;;;;;;;;;4.87;90.31;99053.97;5090148;28;20005;-41
2023/01/10 05:03:00;;;;;;;;;;;;;;;4.82;90.23;99058.97;5091873;28;19965;-42
2023/01/10 05:05:25;;;;;;;;;;;;;;;4.97;90.05;99047.56;5092151;28;19939;-41
2023/01/10 05:07:51;;;;;;;;;;;;;;;4.86;90.60;99040.97;5092720;28;19934;-42
2023/01/10 05:10:16;;;;;;;;;;;;;;;5.00;90.41;99044.56;5092821;28;20382;-42
2023/01/10 05:12:41;;;;;;;;;;;;;;;6.40;100.00;99046.75;5093185;28;19919;-43
2023/01/10 05:15:07;;;;;;;;;;;;;;;6.68;94.86;99039.78;5093036;28;19912;-42
2023/01/10 05:17:32;;;;;;;;;;;;;;;8.76;100.00;99047.84;5092782;28;20417;-43
2023/01/10 05:19:57;;;;;;;;;;;;;;;9.62;84.97;99041.31;5093466;28;19922;-42
2023/01/10 05:22:23;;;;;;;;;;;;;;;8.34;75.10;99028.69;5092883;28;20272;-42
2023/01/10 05:24:48;;;;;;;;;;;;;;;7.56;79.12;99037.28;5092657;28;19912;-42
2023/01/10 05:27:14;;;;;;;;;;;;;;;8.19;76.05;99040.34;5092587;28;19915;-43
2023/01/10 05:29:39;;;;;;;;;;;;;;;8.57;74.22;99031.75;5092656;28;19966;-42
2023/01/10 05:32:04;;;;;;;;;;;;;;;7.66;76.80;99028.94;5093029;28;19919;-42
2023/01/10 05:34:30;;;;;;;;;;;;;;;6.67;81.29;99024.94;5091633;28;20368;-42
2023/01/10 05:36:55;;;;;;;;;;;;;;;6.18;83.66;99006.34;5092459;28;19944;-43
2023/01/10 05:39:20;;;;;;;;;;;;;;;6.91;81.57;99015.69;5092312;28;20388;-42
2023/01/10 05:41:46;;;;;;;;;;;;;;;6.24;84.21;98995.03;5092556;28;19947;-43
2023/01/10 05:44:11;;;;;;;;;;;;;;;6.01;85.67;98986.50;5089972;28;20306;-42
2023/01/10 05:46:36;;;;;;;;;;;;;;;5.90;86.71;99000.19;5079700;28;20407;-42
2023/01/10 05:49:02;;;;;;;;;;;;;;;6.20;87.22;99009.59;5077099;28;19916;-42
2023/01/10 05:51:27;;;;;;;;;;;;;;;6.82;84.51;99010.56;5086422;28;20396;-43
2023/01/10 05:53:52;;;;;;;;;;;;;;;6.21;85.10;99013.06;5090455;28;20472;-41
2023/01/10 05:56:18;;;;;;;;;;;;;;;6.20;84.71;98993.75;5090485;28;20577;-42
2023/01/10 05:58:43;;;;;;;;;;;;;;;5.92;85.32;99003.47;5091219;28;20033;-42
2023/01/10 06:01:08;;;;;;;;;;;;;;;6.14;86.76;99005.09;5090973;28;20395;-42
2023/01/10 06:03:34;;;;;;;;;;;;;;;6.51;86.34;99005.75;5091236;28;20386;-42
2023/01/10 06:05:59;;;;;;;;;;;;;;;6.50;84.08;99033.19;5091439;28;19916;-42
2023/01/10 06:08:25;;;;;;;;;;;;;;;6.10;86.49;99024.97;5091310;28;19919;-42
2023/01/10 06:10:50;;;;;;;;;;;;;;;5.75;86.87;99016.97;5091473;28;19913;-42
2023/01/10 06:13:16;;;;;;;;;;;;;;;5.88;87.33;99017.06;5091371;28;19959;-42
2023/01/10 06:15:41;;;;;;;;;;;;;;;5.60;89.73;99032.84;5091455;28;20360;-42
2023/01/10 06:18:07;;;;;;;;;;;;;;;5.75;90.31;99022.25;5091017;28;19924;-42
2023/01/10 06:20:33;;;;;;;;;;;;;;;6.58;87.79;99024.28;5091871;28;19920;-43
2023/01/10 06:23:01;;;;;;;;;;;;;;;6.28;87.16;99011.28;5091306;28;20065;-43
2023/01/10 06:25:26;;;;;;;;;;;;;;;6.10;87.55;99029.47;5091233;28;20357;-42
2023/01/10 06:27:51;;;;;;;;;;;;;;;5.87;89.13;99022.53;5090929;28;19995;-42
2023/01/10 06:30:17;;;;;;;;;;;;;;;5.79;89.47;99020.03;5091258;28;19935;-42
2023/01/10 06:32:42;;;;;;;;;;;;;;;6.36;90.08;99028.81;5090979;28;20360;-42
2023/01/10 06:35:08;;;;;;;;;;;;;;;6.26;88.02;99023.88;5091026;28;19912;-43
2023/01/10 06:37:33;;;;;;;;;;;;;;;6.14;88.13;99012.22;5090989;28;19916;-42
2023/01/10 06:39:58;;;;;;;;;;;;;;;5.90;89.90;99001.00;5072808;28;19924;-42
2023/01/10 06:42:24;;;;;;;;;;;;;;;5.99;88.85;99014.94;5071635;28;20007;-42
2023/01/10 06:44:49;;;;;;;;;;;;;;;5.63;90.68;99013.19;5071095;28;20265;-42
2023/01/10 06:47:14;;;;;;;;;;;;;;;6.39;88.88;99005.44;5069957;28;20312;-43
2023/01/10 06:49:40;;;;;;;;;;;;;;;6.26;87.53;99014.13;5070884;28;19912;-43
2023/01/10 06:52:05;;;;;;;;;;;;;;;5.98;88.54;99008.03;5070255;28;19920;-43
2023/01/10 06:54:30;;;;;;;;;;;;;;;5.81;89.67;99012.75;5072321;28;19912;-43
2023/01/10 06:56:56;;;;;;;;;;;;;;;5.94;89.17;99006.72;5091013;28;19912;-44
2023/01/10 06:59:21;;;;;;;;;;;;;;;5.82;89.22;99017.81;5089030;28;20384;-43
2023/01/10 07:01:46;;;;;;;;;;;;;;;5.64;89.92;99014.81;5090603;28;19916;-43
2023/01/10 07:04:11;;;;;;;;;;;;;;;5.61;90.52;99009.91;5089002;28;19912;-43
2023/01/10 07:06:37;;;;;;;;;;;;;;;5.47;92.31;98998.41;5088399;28;19985;-42
2023/01/10 07:09:04;;;;;;;;;;;;;;;5.57;91.36;99004.19;5089472;28;20415;-48
2023/01/10 07:11:30;;;;;;;;;;;;;;;5.48;91.66;98998.25;5089468;28;19939;-44
2023/01/10 07:13:56;;;;;;;;;;;;;;;5.37;92.40;98996.09;5089396;28;20011;-42
2023/01/10 07:16:21;;;;;;;;;;;;;;;5.33;91.36;98989.56;5089178;28;20215;-44
2023/01/10 07:18:46;;;;;;;;;;;;;;;5.60;91.35;98984.53;5089769;28;20023;-43
2023/01/10 07:21:11;;;;;;;;;;;;;;;5.31;92.56;98988.91;5090364;28;20003;-43
2023/01/10 07:23:37;;;;;;;;;;;;;;;5.33;91.78;98989.56;5089820;28;19955;-43
2023/01/10 07:26:03;;;;;;;;;;;;;;;5.04;93.42;98991.25;5090573;28;20372;-42
2023/01/10 07:28:29;;;;;;;;;;;;;;;5.13;93.78;98984.06;5090888;28;19961;-43
2023/01/10 07:30:56;;;;;;;;;;;;;;;5.13;94.01;98962.16;5089361;28;19962;-43
2023/01/10 07:33:22;;;;;;;;;;;;;;;5.25;93.13;98969.41;5090680;28;19919;-42
2023/01/10 07:35:47;;;;;;;;;;;;;;;4.97;95.15;98958.75;5090874;28;19912;-42
2023/01/10 07:38:12;;;;;;;;;;;;;;;5.31;94.83;98951.97;5090722;28;19916;-42
2023/01/10 07:40:37;;;;;;;;;;;;;;;5.40;93.20;98945.56;5090140;28;19919;-43
2023/01/10 07:43:03;;;;;;;;;;;;;;;5.43;93.28;98944.41;5090155;28;20014;-43
2023/01/10 07:45:28;;;;;;;;;;;;;;;5.41;93.83;98941.94;5090293;28;20003;-43
2023/01/10 07:47:57;;;;;;;;;;;;;;;5.22;94.30;98945.22;5090528;28;19935;-43
2023/01/10 07:50:23;;;;;;;;;;;;;;;5.31;94.14;98951.97;5090354;28;19916;-43
2023/01/10 07:52:48;;;;;;;;;;;;;;;5.48;94.57;98953.38;5090609;28;19920;-43
2023/01/10 07:55:13;;;;;;;;;;;;;;;5.29;94.85;98939.00;5090534;28;19912;-43
2023/01/10 07:57:39;;;;;;;;;;;;;;;5.10;95.26;98936.97;5090998;28;19938;-43
2023/01/10 08:00:04;;;;;;;;;;;;;;;5.41;94.39;98939.28;5093803;28;19981;-43
2023/01/10 08:02:29;;;;;;;;;;;;;;;5.20;94.27;98924.28;5093667;28;20015;-43
2023/01/10 08:04:55;;;;;;;;;;;;;;;5.19;95.80;98912.09;5093658;28;20427;-43
2023/01/10 08:07:20;;;;;;;;;;;;;;;5.28;95.58;98910.16;5093665;28;19973;-43
2023/01/10 08:09:45;;;;;;;;;;;;;;;5.31;95.05;98915.03;5093705;28;20340;-43
2023/01/10 08:12:10;;;;;;;;;;;;;;;5.33;94.79;98902.50;5093566;28;19912;-43
2023/01/10 08:14:36;;;;;;;;;;;;;;;5.45;94.19;98900.16;5093616;28;20335;-43
2023/01/10 08:17:01;;;;;;;;;;;;;;;5.31;94.86;98904.47;5093750;28;19916;-44
2023/01/10 08:19:26;;;;;;;;;;;;;;;5.33;94.92;98896.38;5093676;28;20410;-43
2023/01/10 08:21:53;;;;;;;;;;;;;;;5.32;94.81;98910.59;5093967;28;19912;-43
2023/01/10 08:24:18;;;;;;;;;;;;;;;5.20;95.60;98924.28;5093542;28;19919;-42
2023/01/10 08:26:43;;;;;;;;;;;;;;;5.39;94.04;98916.75;5093539;28;19917;-43
2023/01/10 08:29:09;;;;;;;;;;;;;;;5.34;94.43;98925.22;5093408;28;19912;-43
2023/01/10 08:31:34;;;;;;;;;;;;;;;5.28;94.12;98912.78;5093404;28;19912;-43
2023/01/10 08:33:59;;;;;;;;;;;;;;;5.37;94.41;98913.47;5093584;28;20345;-44
2023/01/10 08:36:25;;;;;;;;;;;;;;;5.27;93.67;98898.78;5093306;28;19922;-42
2023/01/10 08:38:53;;;;;;;;;;;;;;;5.22;94.49;98892.44;5093272;28;19919;-43
2023/01/10 08:41:18;;;;;;;;;;;;;;;5.24;94.21;98883.34;5093798;28;19912;-43
2023/01/10 08:43:44;;;;;;;;;;;;;;;5.37;94.11;98893.19;5093274;28;20280;-43
2023/01/10 08:46:09;;;;;;;;;;;;;;;5.23;94.46;98886.16;5093009;28;19955;-41
2023/01/10 08:48:34;;;;;;;;;;;;;;;5.32;95.25;98878.94;5093483;28;19966;-43
2023/01/10 08:51:04;;;;;;;;;;;;;;;5.36;94.24;98881.00;5093201;28;20365;-43
2023/01/10 08:53:30;;;;;;;;;;;;;;;5.25;94.56;98873.59;5093019;28;19919;-42
2023/01/10 08:55:56;;;;;;;;;;;;;;;5.34;94.38;98874.28;5093043;28;19924;-41
2023/01/10 08:58:21;;;;;;;;;;;;;;;5.27;95.46;98874.22;5092753;28;19916;-44
2023/01/10 09:00:48;;;;;;;;;;;;;;;5.12;95.56;98874.28;5092462;28;20175;-45
2023/01/10 09:03:13;;;;;;;;;;;;;;;5.37;94.72;98869.44;5092868;28;19916;-44
2023/01/10 09:05:39;;;;;;;;;;;;;;;5.29;94.04;98869.56;5092979;28;20284;-45
2023/01/10 09:08:04;;;;;;;;;;;;;;;5.07;95.88;98876.69;5092811;28;19919;-45
2023/01/10 09:10:29;;;;;;;;;;;;;;;5.14;95.61;98863.56;5091825;28;19922;-45
2023/01/10 09:12:58;;;;;;;;;;;;;;;5.16;95.82;98841.28;5092597;28;19912;-44
2023/01/10 09:15:25;;;;;;;;;;;;;;;5.26;96.02;98833.84;5092399;28;19999;-45
2023/01/10 09:17:54;;;;;;;;;;;;;;;5.35;95.46;98837.16;5092369;28;19946;-47
2023/01/10 09:20:20;;;;;;;;;;;;;;;5.27;95.91;98834.63;5092467;28;19916;-45
2023/01/10 09:22:45;;;;;;;;;;;;;;;5.43;95.43;98829.09;5092311;28;19995;-45
2023/01/10 09:25:10;;;;;;;;;;;;;;;5.30;95.53;98831.63;5092691;28;19913;-46
2023/01/10 09:27:35;;;;;;;;;;;;;;;5.42;95.10;98822.16;5092465;28;20022;-45
2023/01/10 09:30:01;;;;;;;;;;;;;;;5.33;96.37;98810.16;5093119;28;19912;-45
2023/01/10 09:32:26;;;;;;;;;;;;;;;5.39;95.85;98801.47;5092459;28;19919;-47
2023/01/10 09:34:51;;;;;;;;;;;;;;;5.43;95.32;98809.81;5092454;28;19977;-46
2023/01/10 09:37:16;;;;;;;;;;;;;;;5.56;94.93;98801.16;5092469;28;19912;-46
2023/01/10 09:39:42;;;;;;;;;;;;;;;5.68;93.97;98799.59;5092145;28;20447;-46
2023/01/10 09:42:10;;;;;;;;;;;;;;;5.59;94.17;98777.81;5092033;28;19913;-44
2023/01/10 09:44:44;;;;;;;;;;;;;;;5.51;94.98;98767.44;5092167;28;20020;-44
2023/01/10 09:47:36;;;;;;;;;;;;;;;5.70;93.49;98770.38;5092216;28;19919;-45
2023/01/10 09:50:16;;;;;;;;;;;;;;;5.60;94.07;98768.91;5083576;28;20440;-44
2023/01/10 09:52:44;;;;;;;;;;;;;;;5.72;93.56;98771.00;5092024;28;20256;-44
2023/01/10 09:55:19;;;;;;;;;;;;;;;5.94;92.00;98761.97;5091894;28;19912;-46
2023/01/10 09:57:44;;;;;;;;;;;;;;;5.63;94.84;98755.31;5091765;28;19912;-44
2023/01/10 10:00:21;;;;;;;;;;;;;;;5.60;93.78;98754.91;5092317;28;19999;-44
2023/01/10 10:02:48;;;;;;;;;;;;;;;5.76;92.98;98751.91;5091918;28;19912;-43
2023/01/10 10:05:18;;;;;;;;;;;;;;;5.70;93.81;98751.91;5091928;28;20028;-43
2023/01/10 10:07:49;;;;;;;;;;;;;;;5.67;93.93;98747.81;5091662;28;19939;-45
2023/01/10 10:10:17;;;;;;;;;;;;;;;5.73;92.48;98747.03;5091699;28;19912;-44
2023/01/10 10:12:45;;;;;;;;;;;;;;;5.76;93.23;98735.28;5092394;28;19918;-43
2023/01/10 10:15:28;;;;;;;;;;;;;;;5.81;93.91;98728.38;5092011;28;19930;-43
2023/01/10 10:17:54;;;;;;;;;;;;;;;5.80;93.10;98732.03;5091758;28;19928;-44
2023/01/10 10:20:30;;;;;;;;;;;;;;;5.59;94.08;98732.13;5091463;28;19916;-46
2023/01/10 10:23:02;;;;;;;;;;;;;;;5.53;95.30;98730.28;5091730;28;20002;-43
2023/01/10 10:25:49;;;;;;;;;;;;;;;5.83;93.72;98699.16;5091092;28;19962;-43
2023/01/10 10:28:33;;;;;;;;;;;;;;;5.97;92.41;98700.03;5091435;28;19912;-45
2023/01/10 10:31:17;;;;;;;;;;;;;;;6.03;92.51;98692.09;5091075;28;20060;-45
2023/01/10 10:33:42;;;;;;;;;;;;;;;5.96;93.72;98693.09;5091409;28;19919;-42
2023/01/10 10:36:08;;;;;;;;;;;;;;;5.97;96.01;98679.72;5091642;28;19913;-45
2023/01/10 10:38:36;;;;;;;;;;;;;;;5.88;94.83;98680.88;5091346;28;20003;-44
2023/01/10 10:41:02;;;;;;;;;;;;;;;5.79;94.17;98679.44;5090249;28;19964;-44
2023/01/10 10:43:32;;;;;;;;;;;;;;;5.54;95.48;98661.47;5090517;28;19912;-45
2023/01/10 10:46:08;;;;;;;;;;;;;;;5.97;94.03;98649.84;5091180;28;19973;-45
2023/01/10 10:48:38;;;;;;;;;;;;;;;5.88;92.95;98636.81;5091243;28;19923;-47
2023/01/10 10:51:07;;;;;;;;;;;;;;;6.00;92.94;98633.63;5090985;28;19916;-46
2023/01/10 10:53:33;;;;;;;;;;;;;;;6.12;93.81;98642.56;5091195;28;19999;-46
2023/01/10 10:55:59;;;;;;;;;;;;;;;6.10;91.80;98641.94;5091154;28;19946;-48
2023/01/10 10:58:24;;;;;;;;;;;;;;;5.97;93.29;98644.56;5091365;28;19977;-45
2023/01/10 11:00:50;;;;;;;;;;;;;;;6.03;92.83;98643.75;5091011;28;19919;-46
2023/01/10 11:03:25;;;;;;;;;;;;;;;6.09;91.89;98648.22;5091143;28;19919;-48
2023/01/10 11:05:50;;;;;;;;;;;;;;;6.03;91.83;98646.41;5090886;28;20006;-47
2023/01/10 11:08:17;;;;;;;;;;;;;;;6.02;92.88;98640.31;5090871;28;19996;-46
2023/01/10 11:10:45;;;;;;;;;;;;;;;6.02;92.54;98627.09;5091506;28;19923;-45
2023/01/10 11:13:13;;;;;;;;;;;;;;;6.11;92.83;98611.06;5091076;28;20323;-45
2023/01/10 11:15:38;;;;;;;;;;;;;;;6.17;92.07;98599.69;5090831;28;19916;-49
2023/01/10 11:18:15;;;;;;;;;;;;;;;6.05;91.87;98607.41;5090683;28;19926;-46
2023/01/10 11:20:56;;;;;;;;;;;;;;;6.17;91.98;98603.16;5090893;28;19916;-48
2023/01/10 11:23:28;;;;;;;;;;;;;;;5.97;92.36;98591.75;5091003;28;19912;-45
2023/01/10 11:25:54;;;;;;;;;;;;;;;6.04;93.22;98579.38;5090813;28;19974;-45
2023/01/10 11:28:22;;;;;;;;;;;;;;;5.96;93.03;98569.81;5090922;28;19916;-46
2023/01/10 11:30:49;;;;;;;;;;;;;;;5.70;95.19;98573.19;5090730;28;20280;-46
2023/01/10 11:33:20;;;;;;;;;;;;;;;5.84;94.81;98585.38;5092581;28;20368;-44
2023/01/10 11:36:12;;;;;;;;;;;;;;;5.71;94.42;98587.22;5095259;28;19973;-47
2023/01/10 11:38:37;;;;;;;;;;;;;;;5.92;94.26;98588.88;5092560;28;19912;-44
2023/01/10 11:41:21;;;;;;;;;;;;;;;5.79;93.73;98585.19;5094720;28;20000;-45
2023/01/10 11:43:46;;;;;;;;;;;;;;;5.87;93.51;98590.28;5094396;28;20364;-45
2023/01/10 11:46:14;;;;;;;;;;;;;;;5.82;94.48;98578.69;5094330;28;19920;-47
2023/01/10 11:48:39;;;;;;;;;;;;;;;5.82;94.02;98568.94;5094344;28;19912;-44
2023/01/10 11:51:05;;;;;;;;;;;;;;;5.98;95.28;98578.34;5094722;28;20108;-46
2023/01/10 11:53:35;;;;;;;;;;;;;;;6.14;93.11;98561.28;5094436;28;19912;-45
2023/01/10 11:56:01;;;;;;;;;;;;;;;6.10;94.20;98575.91;5094395;28;19921;-45
2023/01/10 11:58:33;;;;;;;;;;;;;;;6.18;92.69;98565.13;5094468;28;19912;-44
2023/01/10 12:00:59;;;;;;;;;;;;;;;6.12;93.48;98573.88;5094499;28;19912;-45
2023/01/10 12:03:28;;;;;;;;;;;;;;;6.17;93.39;98567.97;5094437;28;19919;-44
2023/01/10 12:06:20;;;;;;;;;;;;;;;5.98;93.94;98532.66;5094365;28;19920;-44
2023/01/10 12:08:45;;;;;;;;;;;;;;;5.95;94.05;98554.97;5092929;28;19922;-44
2023/01/10 12:11:16;;;;;;;;;;;;;;;6.04;94.30;98560.88;5094265;28;19912;-45
2023/01/10 12:13:46;;;;;;;;;;;;;;;6.11;94.40;98582.00;5094462;28;19918;-45
2023/01/10 12:16:14;;;;;;;;;;;;;;;6.31;93.95;98569.63;5093860;28;19956;-45
2023/01/10 12:18:40;;;;;;;;;;;;;;;6.22;94.15;98558.44;5093771;28;19920;-43
2023/01/10 12:21:07;;;;;;;;;;;;;;;6.36;93.89;98569.81;5093704;28;20007;-43
2023/01/10 12:23:35;;;;;;;;;;;;;;;6.40;92.99;98570.22;5093819;28;19970;-44
2023/01/10 12:26:01;;;;;;;;;;;;;;;7.07;91.32;98581.47;5093668;28;20558;-45
2023/01/10 12:28:27;;;;;;;;;;;;;;;7.05;89.64;98600.19;5093753;28;20015;-44
2023/01/10 12:30:55;;;;;;;;;;;;;;;6.73;90.13;98595.78;5093495;28;19916;-43
2023/01/10 12:33:23;;;;;;;;;;;;;;;6.44;91.75;98608.44;5094005;28;19916;-43
2023/01/10 12:36:01;;;;;;;;;;;;;;;6.36;92.15;98601.53;5093274;28;19919;-43
2023/01/10 12:44:09;;;;;;;;;;;;;;;7.29;91.07;98602.34;5093831;28;19947;-45
2023/01/10 12:44:11;;;;;;;;;;;;;;;6.93;90.01;98596.56;5092601;28;20210;-42
2023/01/10 12:46:57;;;;;;;;;;;;;;;6.52;92.16;98591.56;5091989;28;20018;-44
2023/01/10 12:49:22;;;;;;;;;;;;;;;6.53;91.29;98564.91;5093355;28;19916;-43
2023/01/10 12:51:49;;;;;;;;;;;;;;;6.61;90.84;98553.31;5093076;28;19919;-43
2023/01/10 12:54:17;;;;;;;;;;;;;;;6.80;92.04;98554.28;5093043;28;19932;-44
2023/01/10 12:56:43;;;;;;;;;;;;;;;7.44;89.53;98540.19;5093080;28;19912;-42
2023/01/10 12:59:24;;;;;;;;;;;;;;;7.48;88.14;98529.16;5093141;28;20018;-44
2023/01/10 13:01:53;;;;;;;;;;;;;;;7.37;88.40;98542.03;5092770;28;19912;-43
2023/01/10 13:04:21;;;;;;;;;;;;;;;7.60;88.02;98540.69;5092918;28;19912;-43
2023/01/10 13:06:47;;;;;;;;;;;;;;;7.35;88.04;98533.50;5092782;28;19965;-43
2023/01/10 13:09:20;;;;;;;;;;;;;;;7.87;88.02;98546.63;5092958;28;19912;-43